Impacts METAR Board
IDs:

KDTW - Detroit Metro/Wayne, MI, US

Updated at: 1700 UTC 26 Apr 2018
Potential Impact None Slight Moderate High
Time 26/05Z 26/06Z 26/07Z 26/08Z 26/09Z 26/10Z 26/11Z 26/12Z 26/13Z 26/14Z 26/15Z 26/16Z 26/17Z
Temp43 42 40 40 40 39 40 43 46 49 52 54 55
Dewpt35 35 35 36 36 36 36 38 40 37 35 35 36
Altim29.96 29.95 29.95 29.93 29.93 29.93 29.94 29.96 29.96 29.95 29.95 29.94 29.94
VIS10 10 6 2 8 5 3 2 4 9 10 10 10
CIG-- -- -- -- -- -- -- -- -- -- -- -- --
CoverCLRCLRFEWCLRFEWFEWFEWFEWFEWFEWFEWSCTSCT
FltCatVFRVFRVFRIFRVFRMVFRMVFRIFRMVFRVFRVFRVFRVFR
WX----HZBR--MIFG BRMIFG BRHZHZ--------
WDir00230250260260260260230300000
WSpd0 0 4 4 5 5 4 4 6 4 3 3 3
WGst-- -- -- -- -- -- -- -- -- -- -- -- --
Raw hourly METARs
KDTW 260453Z 00000KT 10SM CLR 06/02 A2996 RMK AO2 SLP146 T00610017 401670061
KDTW 260553Z 00000KT 10SM CLR 06/02 A2995 RMK AO2 SLP145 T00560017 10122 20056 58004
KDTW 260653Z COR 23004KT 6SM HZ FEW230 04/02 A2995 RMK AO2 TWR VIS 4 SLP142 T00440017
KDTW 260800Z 25004KT 2SM BR CLR 04/02 A2993 RMK AO2 TWR VIS 4 T00440022
KDTW 260853Z 26005KT 8SM FEW230 04/02 A2993 RMK AO2 SLP136 T00440022 56008
KDTW 260953Z 26005KT 5SM MIFG BR FEW230 04/02 A2993 RMK AO2 SLP138 MIFG AT AP T00390022
KDTW 261053Z 26004KT 3SM MIFG BR FEW008 FEW230 04/02 A2994 RMK AO2 TWR VIS 4 SLP142 VIS S-W 2 MIFG AT AP T00440022
KDTW 261156Z 26004KT 2SM R03R/3000VP6000FT HZ FEW004 FEW230 06/03 A2996 RMK AO2 TWR VIS 4 T00610033
KDTW 261253Z 23006KT 4SM HZ FEW004 FEW230 08/04 A2996 RMK AO2 SLP148 T00780044
KDTW 261353Z 30004KT 9SM FEW020 09/03 A2995 RMK AO2 SLP145 T00940028
KDTW 261453Z VRB03KT 10SM FEW030 11/02 A2995 RMK AO2 SLP144 T01110017 58002
KDTW 261553Z VRB03KT 10SM FEW035 SCT250 12/02 A2994 RMK AO2 SLP141 T01220017
KDTW 261653Z VRB03KT 10SM FEW035 SCT250 13/02 A2994 RMK AO2 SLP140 T01280022



Page loaded:  17:21 UTC  |   10:21 AM Pacific  |   11:21 AM Mountain  |   12:21 PM Central  |   01:21 PM Eastern

 

ADVISORIES

FORECASTS

FORECASTS

OBSERVATIONS

USER TOOLS

ABOUT US